createdAt,value
2023-03-14T00:01:49.846Z,42.20
2023-03-14T00:04:56.461Z,42.14
2023-03-14T00:07:59.195Z,42.17
2023-03-14T00:11:06.409Z,42.54
2023-03-14T00:14:09.040Z,42.21
2023-03-14T00:17:11.703Z,42.24
2023-03-14T00:20:16.017Z,42.61
2023-03-14T00:23:18.816Z,42.88
2023-03-14T00:26:22.332Z,43.39
2023-03-14T00:29:25.029Z,43.30
2023-03-14T00:32:27.917Z,43.80
2023-03-14T00:35:30.611Z,42.76
2023-03-14T00:38:34.079Z,42.39
2023-03-14T00:41:36.772Z,42.67
2023-03-14T00:44:39.354Z,42.66
2023-03-14T00:47:46.612Z,42.44
2023-03-14T00:50:50.481Z,42.17
2023-03-14T00:53:52.973Z,42.36
2023-03-14T00:56:55.645Z,42.31
2023-03-14T00:59:58.708Z,42.46
2023-03-14T01:03:02.261Z,42.19
2023-03-14T01:06:12.960Z,42.60
2023-03-14T01:09:15.563Z,42.37
2023-03-14T01:12:18.264Z,42.81
2023-03-14T01:15:21.108Z,43.05
2023-03-14T01:18:23.896Z,43.16
2023-03-14T01:21:29.793Z,42.82
2023-03-14T01:24:32.373Z,43.25
2023-03-14T01:27:35.018Z,43.28
2023-03-14T01:30:38.135Z,43.76
2023-03-14T01:33:42.054Z,43.40
2023-03-14T01:36:45.492Z,43.27
2023-03-14T01:39:48.695Z,43.68
2023-03-14T01:42:58.981Z,43.62
2023-03-14T01:46:05.072Z,43.97
2023-03-14T01:49:18.409Z,44.04
2023-03-14T01:52:29.819Z,44.10
2023-03-14T01:55:32.775Z,44.42
2023-03-14T01:58:35.574Z,44.64
2023-03-14T02:01:42.456Z,44.55
2023-03-14T02:04:45.381Z,45.17
2023-03-14T02:07:56.209Z,45.37
2023-03-14T02:11:03.098Z,45.09
2023-03-14T02:14:37.687Z,45.40
2023-03-14T02:18:07.788Z,45.51
2023-03-14T02:21:43.787Z,45.78
2023-03-14T02:24:59.363Z,45.93
2023-03-14T02:28:02.994Z,46.08
2023-03-14T02:31:06.062Z,46.08
2023-03-14T02:34:10.821Z,46.26
2023-03-14T02:37:18.151Z,46.93
2023-03-14T02:40:23.071Z,46.76
2023-03-14T02:43:27.987Z,46.82
2023-03-14T02:46:36.078Z,47.15
2023-03-14T02:49:38.960Z,47.21
2023-03-14T02:52:41.622Z,46.95
2023-03-14T02:55:49.205Z,46.49
2023-03-14T02:58:54.421Z,46.63
2023-03-14T03:02:15.396Z,46.27
2023-03-14T03:05:18.084Z,46.21
2023-03-14T03:08:22.630Z,45.99
2023-03-14T03:11:25.818Z,45.62
2023-03-14T03:14:28.410Z,45.58
2023-03-14T03:17:34.782Z,45.37
2023-03-14T03:20:39.318Z,45.25
2023-03-14T03:23:41.886Z,45.79
2023-03-14T03:26:45.134Z,46.02
2023-03-14T03:29:48.643Z,46.15
2023-03-14T03:32:51.377Z,46.66
2023-03-14T03:35:54.255Z,46.66
2023-03-14T03:39:05.214Z,46.86
2023-03-14T03:42:07.985Z,47.81
2023-03-14T03:45:11.400Z,47.62
2023-03-14T03:48:23.124Z,47.78
2023-03-14T03:51:26.903Z,47.88
2023-03-14T03:54:32.566Z,47.86
2023-03-14T03:57:36.253Z,47.95
2023-03-14T04:00:40.084Z,48.17
2023-03-14T04:03:42.792Z,48.19
2023-03-14T04:06:45.710Z,47.62
2023-03-14T04:09:48.265Z,47.48
2023-03-14T04:13:14.702Z,47.66
2023-03-14T04:16:21.559Z,47.51
2023-03-14T04:19:24.960Z,48.29
2023-03-14T04:22:29.868Z,47.96
2023-03-14T04:25:32.671Z,48.16
2023-03-14T04:28:40.183Z,47.76
2023-03-14T04:31:43.944Z,47.80
2023-03-14T04:34:46.872Z,48.34
2023-03-14T04:37:50.186Z,48.64
2023-03-14T04:40:53.897Z,49.18
2023-03-14T04:43:59.598Z,49.16
2023-03-14T04:47:02.857Z,49.24
2023-03-14T04:50:06.658Z,49.47
2023-03-14T04:53:11.125Z,49.67
2023-03-14T04:56:18.238Z,49.37
2023-03-14T04:59:21.249Z,49.50
2023-03-14T05:02:25.346Z,49.65
2023-03-14T05:05:37.254Z,49.65
2023-03-14T05:08:56.265Z,49.75
2023-03-14T05:11:59.103Z,49.53
2023-03-14T05:15:37.347Z,49.76
2023-03-14T05:18:51.427Z,49.39
2023-03-14T05:22:14.228Z,49.20
2023-03-14T05:25:32.758Z,48.72
2023-03-14T05:28:54.894Z,48.47
2023-03-14T05:32:13.454Z,47.87
2023-03-14T05:35:43.370Z,47.41
2023-03-14T05:39:06.587Z,46.97
2023-03-14T05:42:28.237Z,46.53
2023-03-14T05:45:46.279Z,46.13
2023-03-14T05:49:04.082Z,45.59
2023-03-14T05:52:19.432Z,44.81
2023-03-14T05:55:37.414Z,44.29
2023-03-14T05:59:08.540Z,43.64
2023-03-14T06:02:38.758Z,43.21
2023-03-14T06:05:52.306Z,42.92
2023-03-14T06:08:57.276Z,42.68
2023-03-14T06:11:59.989Z,42.04
2023-03-14T06:15:03.881Z,41.90
2023-03-14T06:18:08.290Z,41.53
2023-03-14T06:21:11.775Z,41.56
2023-03-14T06:24:14.635Z,41.37
2023-03-14T06:27:22.093Z,41.41
2023-03-14T06:30:28.970Z,41.12
2023-03-14T06:33:32.116Z,40.99
2023-03-14T06:36:41.221Z,40.81
2023-03-14T06:39:45.473Z,40.88
2023-03-14T06:42:58.702Z,40.87
2023-03-14T06:46:03.716Z,40.84
2023-03-14T06:49:08.616Z,41.10
2023-03-14T06:52:12.383Z,40.76
2023-03-14T06:55:16.667Z,40.64
2023-03-14T06:58:19.995Z,40.82
2023-03-14T07:01:26.985Z,40.29
2023-03-14T07:04:32.575Z,40.43
2023-03-14T07:07:35.312Z,40.28
2023-03-14T07:10:39.461Z,40.08
2023-03-14T07:13:43.441Z,39.85
2023-03-14T07:16:46.710Z,39.47
2023-03-14T07:19:49.533Z,39.93
2023-03-14T07:22:52.329Z,39.91
2023-03-14T07:26:06.704Z,39.86
2023-03-14T07:29:11.371Z,40.11
2023-03-14T07:32:15.963Z,39.80
2023-03-14T07:35:19.763Z,39.67
2023-03-14T07:38:23.350Z,39.26
2023-03-14T07:41:51.977Z,38.89
2023-03-14T07:45:13.462Z,38.54
2023-03-14T07:48:16.114Z,38.22
2023-03-14T07:51:20.338Z,38.05
2023-03-14T07:54:23.839Z,37.75
2023-03-14T07:57:26.761Z,37.28
2023-03-14T08:00:33.091Z,37.37
2023-03-14T08:03:35.691Z,37.03
2023-03-14T08:06:38.364Z,36.54
2023-03-14T08:09:41.182Z,36.06
2023-03-14T08:12:43.805Z,36.07
2023-03-14T08:15:50.300Z,35.59
2023-03-14T08:18:52.849Z,35.52
2023-03-14T08:21:55.521Z,35.23
2023-03-14T08:24:58.021Z,34.83
2023-03-14T08:28:00.646Z,35.11
2023-03-14T08:31:03.860Z,35.06
2023-03-14T08:34:07.797Z,35.03
2023-03-14T08:37:19.852Z,34.39
2023-03-14T08:40:28.128Z,33.69
2023-03-14T08:43:30.633Z,32.93
2023-03-14T08:46:33.278Z,31.89
2023-03-14T08:49:35.833Z,30.37
2023-03-14T08:52:41.282Z,25.47
2023-03-14T08:55:43.894Z,21.81
2023-03-14T08:58:46.743Z,19.27
2023-03-14T09:01:49.452Z,16.86
2023-03-14T09:04:52.522Z,16.72
2023-03-14T09:07:55.131Z,16.66
2023-03-14T09:10:58.224Z,16.23
2023-03-14T09:14:01.165Z,15.29
2023-03-14T09:17:05.195Z,16.16
2023-03-14T09:20:10.059Z,15.61
2023-03-14T09:23:13.037Z,14.67
2023-03-14T09:26:15.867Z,15.33
2023-03-14T09:29:19.152Z,15.10
2023-03-14T09:32:21.941Z,14.78
2023-03-14T09:35:24.904Z,14.11
2023-03-14T09:38:28.382Z,13.78
2023-03-14T09:41:35.251Z,13.99
2023-03-14T09:44:43.783Z,14.18
2023-03-14T09:47:58.578Z,14.16
2023-03-14T09:51:08.401Z,13.96
2023-03-14T09:54:32.229Z,14.70
2023-03-14T09:57:36.655Z,14.55
2023-03-14T10:00:39.761Z,14.27
2023-03-14T10:03:45.588Z,15.41
2023-03-14T10:06:49.371Z,14.63
2023-03-14T10:09:52.924Z,15.13
2023-03-14T10:13:16.314Z,14.56
2023-03-14T10:16:29.219Z,14.63
2023-03-14T10:19:31.874Z,14.31
2023-03-14T10:22:35.711Z,13.38
2023-03-14T10:25:39.765Z,13.19
2023-03-14T10:28:48.310Z,13.77
2023-03-14T10:31:55.304Z,15.35
2023-03-14T10:35:14.988Z,15.97
2023-03-14T10:38:18.708Z,17.72
2023-03-14T10:41:31.878Z,19.73
2023-03-14T10:44:35.758Z,21.25
2023-03-14T10:47:49.804Z,21.28
2023-03-14T10:51:06.548Z,20.64
2023-03-14T10:54:35.451Z,20.23
2023-03-14T10:57:42.696Z,17.36
2023-03-14T11:00:53.571Z,16.71
2023-03-14T11:04:27.128Z,15.74
2023-03-14T11:07:40.609Z,14.30
2023-03-14T11:10:47.625Z,15.83
2023-03-14T11:14:02.679Z,17.23
2023-03-14T11:17:32.272Z,16.41
2023-03-14T11:20:54.260Z,14.22
2023-03-14T11:24:06.037Z,13.36
2023-03-14T11:27:39.392Z,14.65
2023-03-14T11:31:05.432Z,16.48
2023-03-14T11:34:13.894Z,16.01
2023-03-14T11:37:34.916Z,15.88
2023-03-14T11:40:39.930Z,16.52
2023-03-14T11:43:44.178Z,18.36
2023-03-14T11:46:56.096Z,19.54
2023-03-14T11:50:20.078Z,19.20
2023-03-14T11:53:57.210Z,22.16
2023-03-14T11:57:05.120Z,23.26
2023-03-14T12:00:19.180Z,22.73
2023-03-14T12:03:57.434Z,23.35
2023-03-14T12:07:08.992Z,23.72
2023-03-14T12:10:12.454Z,24.48
2023-03-14T12:13:17.229Z,25.12
2023-03-14T12:16:25.770Z,25.54
2023-03-14T12:19:32.092Z,24.75
2023-03-14T12:22:42.645Z,23.81
2023-03-14T12:25:45.230Z,25.21
2023-03-14T12:29:15.824Z,25.80
2023-03-14T12:32:26.210Z,26.51
2023-03-14T12:35:53.883Z,25.68
2023-03-14T12:39:14.412Z,24.03
2023-03-14T12:42:46.958Z,22.93
2023-03-14T12:46:12.654Z,25.47
2023-03-14T12:49:15.767Z,25.89
2023-03-14T12:52:29.174Z,27.13
2023-03-14T12:55:45.945Z,27.50
2023-03-14T12:59:29.979Z,27.09
2023-03-14T13:02:46.725Z,27.63
2023-03-14T13:06:00.574Z,28.05
2023-03-14T13:09:28.756Z,28.54
2023-03-14T13:12:40.244Z,28.66
2023-03-14T13:15:49.781Z,28.54
2023-03-14T13:19:12.649Z,28.88
2023-03-14T13:22:26.450Z,28.42
2023-03-14T13:25:36.938Z,28.79
2023-03-14T13:28:40.043Z,28.52
2023-03-14T13:31:46.779Z,29.28
2023-03-14T13:34:49.831Z,29.25
2023-03-14T13:38:11.106Z,29.30
2023-03-14T13:41:15.253Z,29.65
2023-03-14T13:44:25.905Z,29.52
2023-03-14T13:47:28.571Z,29.56
2023-03-14T13:50:32.274Z,28.98
2023-03-14T13:53:51.015Z,29.48
2023-03-14T13:57:04.763Z,29.16
2023-03-14T14:00:11.130Z,29.60
2023-03-14T14:03:16.438Z,29.75
2023-03-14T14:06:24.847Z,29.36
2023-03-14T14:09:36.478Z,29.62
2023-03-14T14:12:46.908Z,29.38
2023-03-14T14:15:54.341Z,29.68
2023-03-14T14:18:58.772Z,29.18
2023-03-14T14:22:01.805Z,29.29
2023-03-14T14:25:05.174Z,29.07
2023-03-14T14:28:22.787Z,28.43
2023-03-14T14:31:26.298Z,28.85
2023-03-14T14:34:28.787Z,28.97
2023-03-14T14:37:45.306Z,29.43
2023-03-14T14:40:51.796Z,29.35
2023-03-14T14:43:54.412Z,29.52
2023-03-14T14:47:00.062Z,29.78
2023-03-14T14:50:05.813Z,30.21
2023-03-14T14:53:31.025Z,30.67
2023-03-14T14:56:37.317Z,31.42
2023-03-14T14:59:44.874Z,31.01
2023-03-14T15:02:49.976Z,31.19
2023-03-14T15:05:56.358Z,31.74
2023-03-14T15:08:59.689Z,31.75
2023-03-14T15:12:02.321Z,31.80
2023-03-14T15:15:05.702Z,31.99
2023-03-14T15:18:15.512Z,32.00
2023-03-14T15:21:18.171Z,32.27
2023-03-14T15:24:20.876Z,32.40
2023-03-14T15:27:23.941Z,32.33
2023-03-14T15:30:26.551Z,32.53
2023-03-14T15:33:30.033Z,32.49
2023-03-14T15:36:35.100Z,32.32
2023-03-14T15:39:37.709Z,32.21
2023-03-14T15:42:41.510Z,32.35
2023-03-14T15:45:44.310Z,32.51
2023-03-14T15:48:47.409Z,32.46
2023-03-14T15:51:50.065Z,32.47
2023-03-14T15:54:52.589Z,32.07
2023-03-14T15:57:55.293Z,32.81
2023-03-14T16:00:58.123Z,38.43
2023-03-14T16:04:03.262Z,42.40
2023-03-14T16:07:05.924Z,44.44
2023-03-14T16:10:12.498Z,47.03
2023-03-14T16:13:16.201Z,48.24
2023-03-14T16:16:19.189Z,49.60
2023-03-14T16:19:22.181Z,50.23
2023-03-14T16:22:25.005Z,50.75
2023-03-14T16:25:27.649Z,51.85
2023-03-14T16:28:30.589Z,51.90
2023-03-14T16:31:33.577Z,52.01
2023-03-14T16:34:40.295Z,52.86
2023-03-14T16:37:43.224Z,52.93
2023-03-14T16:40:56.435Z,53.07
2023-03-14T16:44:00.000Z,53.32
2023-03-14T16:47:02.827Z,54.58
2023-03-14T16:50:06.046Z,54.23
2023-03-14T16:53:11.790Z,54.31
2023-03-14T16:56:15.054Z,54.57
2023-03-14T16:59:18.163Z,55.27
2023-03-14T17:02:21.714Z,55.02
2023-03-14T17:05:25.005Z,55.10
2023-03-14T17:08:27.895Z,55.25
2023-03-14T17:11:33.433Z,55.42
2023-03-14T17:14:37.003Z,55.47
2023-03-14T17:17:39.981Z,55.90
2023-03-14T17:20:45.502Z,57.49
2023-03-14T17:23:49.074Z,58.70
2023-03-14T17:26:51.971Z,59.98
2023-03-14T17:29:54.816Z,60.43
2023-03-14T17:32:58.732Z,60.24
2023-03-14T17:36:02.735Z,60.48
2023-03-14T17:39:06.073Z,61.17
2023-03-14T17:42:09.705Z,60.90
2023-03-14T17:45:13.236Z,60.77
2023-03-14T17:48:16.930Z,61.04
2023-03-14T17:51:20.174Z,61.78
2023-03-14T17:54:25.205Z,61.64
2023-03-14T17:57:29.603Z,61.76
2023-03-14T18:00:33.703Z,61.97
2023-03-14T18:03:37.284Z,62.12
2023-03-14T18:06:45.258Z,61.45
2023-03-14T18:09:48.889Z,61.51
2023-03-14T18:12:52.219Z,61.18
2023-03-14T18:15:55.793Z,60.87
2023-03-14T18:19:02.792Z,61.95
2023-03-14T18:22:07.535Z,59.71
2023-03-14T18:25:11.962Z,58.70
2023-03-14T18:28:16.715Z,59.71
2023-03-14T18:31:22.996Z,60.21
2023-03-14T18:34:27.368Z,59.98
2023-03-14T18:37:31.933Z,58.84
2023-03-14T18:40:36.417Z,59.40
2023-03-14T18:43:42.058Z,59.32
2023-03-14T18:46:47.020Z,60.01
2023-03-14T18:49:50.910Z,60.10
2023-03-14T18:52:54.839Z,59.34
2023-03-14T18:56:02.865Z,59.61
2023-03-14T18:59:07.299Z,60.40
2023-03-14T19:02:10.518Z,59.92
2023-03-14T19:05:14.568Z,59.29
2023-03-14T19:08:18.694Z,59.87
2023-03-14T19:11:27.079Z,59.30
2023-03-14T19:14:32.121Z,58.73
2023-03-14T19:17:36.783Z,57.27
2023-03-14T19:20:45.788Z,57.29
2023-03-14T19:23:49.824Z,56.84
2023-03-14T19:26:54.854Z,57.10
2023-03-14T19:29:59.796Z,57.74
2023-03-14T19:33:03.955Z,58.43
2023-03-14T19:36:20.144Z,59.17
2023-03-14T19:39:24.585Z,59.72
2023-03-14T19:42:30.057Z,60.02
2023-03-14T19:45:37.187Z,60.98
2023-03-14T19:48:41.463Z,61.00
2023-03-14T19:51:45.502Z,61.38
2023-03-14T19:54:49.862Z,60.19
2023-03-14T19:57:54.308Z,59.78
2023-03-14T20:01:01.875Z,59.97
2023-03-14T20:04:08.057Z,57.15
2023-03-14T20:07:13.373Z,56.67
2023-03-14T20:10:20.053Z,57.09
2023-03-14T20:13:24.150Z,57.40
2023-03-14T20:16:31.005Z,58.20
2023-03-14T20:19:35.657Z,58.90
2023-03-14T20:22:43.155Z,58.82
2023-03-14T20:25:58.372Z,59.11
2023-03-14T20:29:03.062Z,59.90
2023-03-14T20:32:10.026Z,61.37
2023-03-14T20:35:14.873Z,62.16
2023-03-14T20:38:19.103Z,61.64
2023-03-14T20:41:23.013Z,62.22
2023-03-14T20:44:28.394Z,63.00
2023-03-14T20:47:32.357Z,63.46
2023-03-14T20:50:37.093Z,63.96
2023-03-14T20:53:41.234Z,64.85
2023-03-14T20:56:46.567Z,65.22
2023-03-14T20:59:49.961Z,65.45
2023-03-14T21:02:54.435Z,65.96
2023-03-14T21:05:59.002Z,65.57
2023-03-14T21:09:05.785Z,65.75
2023-03-14T21:12:10.816Z,65.30
2023-03-14T21:15:14.779Z,65.31
2023-03-14T21:18:18.160Z,65.19
2023-03-14T21:21:22.452Z,66.48
2023-03-14T21:24:26.321Z,65.72
2023-03-14T21:27:29.516Z,66.09
2023-03-14T21:30:34.214Z,65.71
2023-03-14T21:33:37.053Z,65.95
2023-03-14T21:36:39.687Z,66.77
2023-03-14T21:39:42.865Z,66.82
2023-03-14T21:42:45.973Z,66.64
2023-03-14T21:45:49.125Z,67.12
2023-03-14T21:48:54.150Z,66.62
2023-03-14T21:51:56.887Z,66.53
2023-03-14T21:54:59.543Z,66.24
2023-03-14T21:58:02.790Z,66.28
2023-03-14T22:01:07.100Z,65.70
2023-03-14T22:04:09.839Z,65.81
2023-03-14T22:07:18.331Z,65.00
2023-03-14T22:10:22.208Z,65.64
2023-03-14T22:13:25.897Z,64.59
2023-03-14T22:16:28.410Z,64.43
2023-03-14T22:19:34.849Z,63.77
2023-03-14T22:22:37.903Z,63.19
2023-03-14T22:25:42.393Z,62.95
2023-03-14T22:28:45.017Z,63.22
2023-03-14T22:31:47.740Z,64.11
2023-03-14T22:34:50.332Z,64.47
2023-03-14T22:37:54.499Z,63.72
2023-03-14T22:41:05.140Z,64.85
2023-03-14T22:44:08.019Z,65.00
2023-03-14T22:47:10.747Z,65.17
2023-03-14T22:50:13.353Z,65.45
2023-03-14T22:53:16.580Z,64.87
2023-03-14T22:56:19.061Z,65.41
2023-03-14T22:59:21.709Z,65.43
2023-03-14T23:02:24.254Z,64.90
2023-03-14T23:05:26.983Z,64.18
2023-03-14T23:08:33.113Z,61.89
2023-03-14T23:11:35.774Z,61.69
2023-03-14T23:14:38.310Z,61.26
2023-03-14T23:17:41.550Z,61.14
2023-03-14T23:20:44.034Z,61.80
2023-03-14T23:23:47.807Z,61.47
2023-03-14T23:26:51.711Z,60.17
2023-03-14T23:29:54.369Z,60.89
2023-03-14T23:32:57.026Z,60.60
2023-03-14T23:35:59.591Z,59.99
2023-03-14T23:39:02.301Z,59.30
2023-03-14T23:42:04.988Z,59.05
2023-03-14T23:45:07.955Z,58.74
2023-03-14T23:48:10.745Z,58.19
2023-03-14T23:51:15.930Z,59.32
2023-03-14T23:54:18.451Z,59.05
2023-03-14T23:57:21.028Z,59.10
